createdAt,value
2023-05-25T00:01:01.202Z,11.89
2023-05-25T00:03:32.773Z,11.81
2023-05-25T00:06:01.807Z,11.76
2023-05-25T00:08:29.968Z,11.70
2023-05-25T00:10:58.065Z,11.61
2023-05-25T00:13:26.001Z,11.55
2023-05-25T00:15:54.012Z,11.51
2023-05-25T00:18:22.002Z,11.49
2023-05-25T00:20:50.340Z,11.47
2023-05-25T00:23:18.221Z,11.47
2023-05-25T00:25:46.139Z,11.45
2023-05-25T00:28:14.337Z,11.40
2023-05-25T00:30:43.290Z,11.40
2023-05-25T00:33:11.482Z,11.41
2023-05-25T00:35:39.372Z,11.39
2023-05-25T00:38:13.035Z,11.33
2023-05-25T00:40:41.392Z,11.27
2023-05-25T00:43:09.773Z,11.22
2023-05-25T00:45:37.914Z,11.13
2023-05-25T00:48:06.484Z,11.05
2023-05-25T00:50:39.153Z,10.96
2023-05-25T00:53:08.188Z,10.89
2023-05-25T00:55:42.038Z,10.81
2023-05-25T00:58:10.822Z,10.74
2023-05-25T01:00:41.541Z,10.73
2023-05-25T01:03:22.366Z,10.74
2023-05-25T01:05:54.765Z,10.77
2023-05-25T01:08:24.725Z,10.78
2023-05-25T01:10:54.251Z,10.81
2023-05-25T01:13:22.677Z,10.82
2023-05-25T01:15:52.898Z,10.82
2023-05-25T01:18:20.725Z,10.77
2023-05-25T01:20:57.304Z,10.73
2023-05-25T01:23:34.073Z,10.65
2023-05-25T01:26:07.220Z,10.62
2023-05-25T01:28:46.539Z,10.58
2023-05-25T01:31:16.505Z,10.55
2023-05-25T01:33:45.785Z,10.51
2023-05-25T01:36:13.937Z,10.49
2023-05-25T01:38:42.015Z,10.50
2023-05-25T01:41:11.461Z,10.50
2023-05-25T01:43:39.486Z,10.55
2023-05-25T01:46:20.098Z,10.56
2023-05-25T01:49:08.764Z,10.59
2023-05-25T01:51:44.546Z,10.55
2023-05-25T01:54:18.728Z,10.46
2023-05-25T01:56:48.240Z,10.44
2023-05-25T01:59:20.332Z,10.41
2023-05-25T02:01:52.107Z,10.40
2023-05-25T02:04:22.868Z,10.36
2023-05-25T02:06:53.602Z,10.31
2023-05-25T02:09:21.630Z,10.28
2023-05-25T02:11:49.593Z,10.26
2023-05-25T02:14:17.554Z,10.25
2023-05-25T02:16:48.358Z,10.27
2023-05-25T02:19:16.411Z,10.31
2023-05-25T02:21:44.424Z,10.30
2023-05-25T02:24:12.433Z,10.32
2023-05-25T02:26:40.706Z,10.33
2023-05-25T02:29:09.168Z,10.36
2023-05-25T02:31:40.725Z,10.33
2023-05-25T02:34:08.567Z,10.35
2023-05-25T02:36:36.872Z,10.37
2023-05-25T02:39:06.424Z,10.33
2023-05-25T02:41:34.387Z,10.21
2023-05-25T02:44:05.164Z,10.13
2023-05-25T02:46:33.889Z,10.09
2023-05-25T02:49:02.135Z,10.05
2023-05-25T02:51:30.110Z,9.99
2023-05-25T02:54:00.719Z,9.91
2023-05-25T02:56:28.615Z,9.87
2023-05-25T02:58:57.316Z,9.90
2023-05-25T03:01:32.188Z,9.93
2023-05-25T03:04:01.737Z,9.96
2023-05-25T03:06:33.436Z,10.00
2023-05-25T03:09:09.776Z,10.05
2023-05-25T03:11:38.570Z,10.11
2023-05-25T03:14:06.471Z,10.14
2023-05-25T03:16:36.583Z,10.18
2023-05-25T03:19:05.887Z,10.24
2023-05-25T03:21:35.453Z,10.25
2023-05-25T03:24:03.730Z,10.27
2023-05-25T03:26:33.434Z,10.30
2023-05-25T03:29:02.171Z,10.35
2023-05-25T03:31:30.798Z,10.43
2023-05-25T03:33:59.263Z,10.48
2023-05-25T03:36:27.626Z,10.55
2023-05-25T03:38:55.737Z,10.63
2023-05-25T03:41:24.316Z,10.72
2023-05-25T03:43:53.160Z,10.77
2023-05-25T03:46:21.620Z,10.78
2023-05-25T03:48:52.105Z,10.74
2023-05-25T03:51:20.205Z,10.72
2023-05-25T03:53:48.351Z,10.68
2023-05-25T03:56:16.232Z,10.68
2023-05-25T03:58:44.209Z,10.70
2023-05-25T04:01:13.841Z,10.77
2023-05-25T04:03:42.030Z,10.79
2023-05-25T04:06:12.618Z,10.78
2023-05-25T04:08:41.146Z,10.58
2023-05-25T04:11:09.236Z,10.42
2023-05-25T04:13:40.436Z,10.38
2023-05-25T04:16:12.265Z,10.45
2023-05-25T04:18:41.675Z,10.48
2023-05-25T04:21:09.788Z,10.43
2023-05-25T04:23:37.681Z,10.35
2023-05-25T04:26:15.715Z,10.39
2023-05-25T04:28:45.593Z,10.52
2023-05-25T04:31:36.007Z,10.59
2023-05-25T04:34:23.946Z,10.70
2023-05-25T04:37:05.821Z,10.83
2023-05-25T04:39:34.510Z,10.88
2023-05-25T04:42:06.150Z,10.99
2023-05-25T04:44:36.172Z,11.06
2023-05-25T04:47:07.576Z,11.07
2023-05-25T04:49:36.068Z,10.91
2023-05-25T04:52:04.528Z,10.79
2023-05-25T04:54:32.607Z,10.76
2023-05-25T04:57:03.420Z,10.78
2023-05-25T04:59:33.022Z,10.87
2023-05-25T05:02:01.575Z,10.87
2023-05-25T05:04:30.659Z,10.95
2023-05-25T05:07:00.003Z,10.94
2023-05-25T05:09:30.676Z,10.97
2023-05-25T05:12:01.912Z,10.96
2023-05-25T05:14:32.066Z,10.98
2023-05-25T05:17:00.218Z,11.09
2023-05-25T05:19:28.522Z,11.21
2023-05-25T05:21:57.068Z,11.28
2023-05-25T05:24:27.347Z,11.22
2023-05-25T05:26:58.808Z,11.23
2023-05-25T05:29:43.097Z,11.15
2023-05-25T05:32:11.290Z,11.16
2023-05-25T05:34:39.249Z,11.23
2023-05-25T05:37:14.628Z,11.32
2023-05-25T05:39:42.518Z,11.40
2023-05-25T05:42:10.660Z,11.43
2023-05-25T05:44:38.704Z,11.51
2023-05-25T05:47:06.858Z,11.53
2023-05-25T05:49:34.871Z,11.69
2023-05-25T05:52:02.827Z,11.91
2023-05-25T05:54:31.164Z,12.13
2023-05-25T05:57:03.440Z,12.30
2023-05-25T05:59:31.281Z,12.42
2023-05-25T06:01:59.367Z,12.50
2023-05-25T06:04:29.256Z,12.53
2023-05-25T06:06:58.989Z,12.54
2023-05-25T06:09:27.140Z,12.53
2023-05-25T06:11:58.485Z,12.54
2023-05-25T06:14:28.497Z,12.51
2023-05-25T06:16:58.714Z,12.54
2023-05-25T06:19:27.300Z,12.54
2023-05-25T06:21:55.433Z,12.52
2023-05-25T06:24:23.458Z,12.57
2023-05-25T06:26:51.616Z,12.68
2023-05-25T06:29:20.508Z,12.71
2023-05-25T06:31:48.602Z,12.75
2023-05-25T06:34:16.597Z,12.72
2023-05-25T06:36:44.431Z,12.70
2023-05-25T06:39:12.592Z,12.77
2023-05-25T06:41:40.763Z,12.92
2023-05-25T06:44:08.921Z,12.91
2023-05-25T06:46:42.646Z,12.88
2023-05-25T06:49:10.913Z,12.96
2023-05-25T06:51:39.357Z,13.08
2023-05-25T06:54:10.452Z,13.14
2023-05-25T06:56:38.293Z,13.12
2023-05-25T06:59:06.238Z,13.18
2023-05-25T07:01:34.529Z,13.28
2023-05-25T07:04:02.429Z,13.26
2023-05-25T07:06:30.245Z,13.26
2023-05-25T07:08:58.151Z,13.23
2023-05-25T07:11:26.624Z,13.25
2023-05-25T07:13:54.550Z,13.30
2023-05-25T07:16:22.375Z,13.36
2023-05-25T07:18:50.354Z,13.46
2023-05-25T07:21:18.197Z,13.55
2023-05-25T07:23:46.242Z,13.71
2023-05-25T07:26:14.702Z,13.90
2023-05-25T07:28:42.541Z,14.09
2023-05-25T07:31:11.435Z,14.20
2023-05-25T07:33:39.362Z,14.13
2023-05-25T07:36:10.763Z,14.01
2023-05-25T07:38:38.782Z,14.01
2023-05-25T07:41:09.148Z,13.98
2023-05-25T07:43:37.685Z,13.91
2023-05-25T07:46:05.859Z,13.93
2023-05-25T07:48:34.258Z,14.00
2023-05-25T07:51:02.147Z,14.16
2023-05-25T07:53:30.225Z,14.30
2023-05-25T07:55:58.133Z,14.33
2023-05-25T07:58:25.983Z,14.37
2023-05-25T13:02:37.985Z,24.07
2023-05-25T13:05:07.625Z,24.19
2023-05-25T13:07:35.535Z,24.11
2023-05-25T13:10:03.529Z,24.48
2023-05-25T13:12:31.403Z,24.92
2023-05-25T13:14:59.474Z,25.29
2023-05-25T13:17:27.341Z,25.58
2023-05-25T13:19:55.415Z,25.93
2023-05-25T13:22:23.481Z,26.14
2023-05-25T13:24:51.421Z,26.29
2023-05-25T13:27:19.335Z,26.51
2023-05-25T13:29:47.196Z,26.72
2023-05-25T13:32:15.128Z,27.12
2023-05-25T13:34:42.048Z,27.51
2023-05-25T13:37:10.943Z,27.91
2023-05-25T13:39:38.742Z,28.22
2023-05-25T13:42:07.684Z,28.23
2023-05-25T13:44:35.770Z,28.25
2023-05-25T13:47:03.904Z,28.20
2023-05-25T13:49:31.837Z,28.03
2023-05-25T13:51:59.772Z,27.87
2023-05-25T13:54:27.621Z,27.93
2023-05-25T13:56:55.482Z,28.07
2023-05-25T13:59:23.535Z,28.21
2023-05-25T14:01:55.173Z,28.24
2023-05-25T14:04:23.972Z,28.25
2023-05-25T14:06:51.929Z,28.33
2023-05-25T14:09:20.031Z,28.57
2023-05-25T14:11:47.951Z,28.78
2023-05-25T14:14:30.034Z,29.09
2023-05-25T14:17:01.589Z,29.35
2023-05-25T14:19:29.588Z,29.35
2023-05-25T14:22:11.686Z,29.39
2023-05-25T14:24:40.177Z,29.38
2023-05-25T14:27:08.079Z,29.49
2023-05-25T14:29:36.266Z,29.59
2023-05-25T14:32:04.880Z,29.63
2023-05-25T14:34:32.940Z,29.72
2023-05-25T14:37:00.749Z,29.88
2023-05-25T14:39:28.712Z,29.99
2023-05-25T14:41:56.562Z,30.18
2023-05-25T14:44:24.599Z,30.26
2023-05-25T14:46:52.634Z,30.41
2023-05-25T14:49:24.767Z,30.58
2023-05-25T14:51:53.340Z,30.86
2023-05-25T14:54:21.497Z,31.24
2023-05-25T14:56:49.407Z,31.56
2023-05-25T14:59:17.314Z,31.58
2023-05-25T15:01:46.655Z,30.97
2023-05-25T15:04:18.113Z,30.10
2023-05-25T15:06:46.066Z,30.11
2023-05-25T15:09:15.855Z,30.01
2023-05-25T15:11:43.770Z,29.51
2023-05-25T15:14:11.691Z,29.33
2023-05-25T15:16:39.799Z,30.10
2023-05-25T15:19:10.650Z,31.05
2023-05-25T15:21:39.745Z,31.68
2023-05-25T15:24:07.842Z,31.01
2023-05-25T15:26:35.766Z,29.94
2023-05-25T15:29:03.735Z,28.98
2023-05-25T15:31:31.762Z,28.29
2023-05-25T15:34:00.740Z,27.95
2023-05-25T15:36:31.122Z,27.62
2023-05-25T15:38:59.228Z,27.40
2023-05-25T15:41:27.326Z,28.28
2023-05-25T15:44:01.280Z,29.83
2023-05-25T15:46:29.685Z,31.25
2023-05-25T15:48:57.757Z,32.37
2023-05-25T15:51:25.757Z,33.22
2023-05-25T15:53:54.863Z,33.86
2023-05-25T15:56:23.626Z,34.52
2023-05-25T15:58:51.477Z,34.92
2023-05-25T16:01:19.724Z,35.33
2023-05-25T16:03:48.330Z,35.82
2023-05-25T16:06:16.318Z,36.37
2023-05-25T16:08:44.446Z,36.69
2023-05-25T16:11:12.819Z,36.79
2023-05-25T16:13:40.700Z,37.01
2023-05-25T16:16:08.857Z,37.03
2023-05-25T16:18:37.026Z,36.56
2023-05-25T16:21:05.600Z,35.98
2023-05-25T16:23:33.612Z,36.60
2023-05-25T16:26:01.658Z,37.07
2023-05-25T16:28:29.484Z,37.52
2023-05-25T16:30:57.318Z,37.86
2023-05-25T16:33:25.365Z,37.70
2023-05-25T16:35:53.840Z,37.52
2023-05-25T16:38:21.747Z,37.56
2023-05-25T16:40:49.563Z,37.87
2023-05-25T16:43:17.744Z,38.11
2023-05-25T16:45:48.310Z,38.46
2023-05-25T16:48:16.957Z,38.87
2023-05-25T16:50:44.932Z,39.19
2023-05-25T16:53:12.866Z,39.30
2023-05-25T16:55:41.049Z,39.28
2023-05-25T16:58:09.218Z,39.38
2023-05-25T17:00:37.114Z,39.53
2023-05-25T17:03:06.894Z,39.51
2023-05-25T17:05:35.023Z,39.40
2023-05-25T17:08:03.161Z,39.06
2023-05-25T17:10:31.005Z,38.76
2023-05-25T17:12:59.453Z,38.34
2023-05-25T17:15:27.277Z,38.04
2023-05-25T17:17:55.693Z,37.91
2023-05-25T17:20:24.465Z,37.59
2023-05-25T17:22:53.009Z,37.31
2023-05-25T17:25:21.840Z,36.54
2023-05-25T17:27:49.793Z,35.95
2023-05-25T17:30:18.281Z,35.89
2023-05-25T17:32:47.105Z,35.88
2023-05-25T17:35:15.135Z,35.80
2023-05-25T17:37:43.467Z,35.38
2023-05-25T17:40:17.409Z,34.30
2023-05-25T17:42:46.106Z,33.74
2023-05-25T17:45:14.568Z,32.95
2023-05-25T17:47:42.415Z,31.70
2023-05-25T17:50:10.725Z,30.61
2023-05-25T17:52:39.189Z,29.61
2023-05-25T17:55:08.530Z,28.60
2023-05-25T17:57:36.967Z,27.59
2023-05-25T18:00:05.770Z,26.74
2023-05-25T18:02:41.504Z,26.04
2023-05-25T18:05:09.968Z,25.48
2023-05-25T18:07:38.324Z,25.01
2023-05-25T18:10:07.534Z,24.63
2023-05-25T18:12:35.668Z,24.29
2023-05-25T18:15:03.725Z,23.99
2023-05-25T18:17:32.489Z,23.69
2023-05-25T18:20:01.000Z,23.41
2023-05-25T18:22:29.193Z,23.12
2023-05-25T18:24:57.143Z,22.84
2023-05-25T18:27:25.410Z,22.57
2023-05-25T18:29:53.441Z,22.33
2023-05-25T18:32:21.814Z,22.08
2023-05-25T18:34:49.707Z,21.84
2023-05-25T18:37:17.917Z,21.63
2023-05-25T18:39:46.214Z,21.41
2023-05-25T18:42:14.048Z,21.20
2023-05-25T18:44:41.999Z,20.98
2023-05-25T18:47:11.124Z,20.79
2023-05-25T18:49:40.238Z,20.61
2023-05-25T18:52:10.421Z,20.42
2023-05-25T18:54:42.036Z,20.23
2023-05-25T18:57:09.980Z,20.09
2023-05-25T18:59:38.746Z,19.93
2023-05-25T19:02:06.942Z,19.79
2023-05-25T19:04:35.325Z,19.64
2023-05-25T19:07:04.332Z,19.45
2023-05-25T19:09:32.595Z,19.29
2023-05-25T19:12:01.420Z,19.15
2023-05-25T19:14:29.928Z,19.00
2023-05-25T19:16:59.341Z,18.87
2023-05-25T19:19:27.670Z,18.74
2023-05-25T19:21:55.919Z,18.60
2023-05-25T19:24:23.913Z,18.47
2023-05-25T19:26:52.179Z,18.32
2023-05-25T19:29:20.824Z,18.11
2023-05-25T19:31:48.885Z,17.90
2023-05-25T19:34:17.732Z,17.76
2023-05-25T19:36:47.075Z,17.65
2023-05-25T19:39:15.091Z,17.57
2023-05-25T19:41:45.856Z,17.49
2023-05-25T19:44:14.219Z,17.44
2023-05-25T19:46:42.476Z,17.38
2023-05-25T19:49:10.812Z,17.32
2023-05-25T19:51:39.107Z,17.23
2023-05-25T19:54:07.926Z,17.12
2023-05-25T19:56:36.049Z,17.07
2023-05-25T19:59:04.088Z,17.02
2023-05-25T20:01:33.904Z,16.98
2023-05-25T20:04:02.334Z,16.89
2023-05-25T20:06:30.304Z,16.80
2023-05-25T20:08:59.627Z,16.69
2023-05-25T20:11:28.023Z,16.59
2023-05-25T20:13:56.574Z,16.50
2023-05-25T20:16:26.005Z,16.40
2023-05-25T20:18:54.066Z,16.32
2023-05-25T20:21:22.459Z,16.26
2023-05-25T20:23:50.406Z,16.16
2023-05-25T20:26:18.226Z,16.08
2023-05-25T20:28:46.156Z,16.00
2023-05-25T20:31:14.454Z,15.89
2023-05-25T20:33:42.672Z,15.80
2023-05-25T20:36:10.638Z,15.73
2023-05-25T20:38:38.628Z,15.66
2023-05-25T20:41:06.667Z,15.59
2023-05-25T20:43:34.742Z,15.55
2023-05-25T20:46:02.876Z,15.50
2023-05-25T20:48:30.909Z,15.44
2023-05-25T20:50:58.884Z,15.38
2023-05-25T20:53:26.861Z,15.35
2023-05-25T20:55:56.463Z,15.28
2023-05-25T20:58:24.544Z,15.18
2023-05-25T21:00:52.487Z,15.08
2023-05-25T21:03:20.608Z,15.04
2023-05-25T21:05:48.703Z,15.04
2023-05-25T21:08:16.533Z,15.00
2023-05-25T21:10:44.590Z,14.94
2023-05-25T21:13:12.798Z,14.86
2023-05-25T21:15:40.970Z,14.79
2023-05-25T21:18:10.009Z,14.73
2023-05-25T21:20:38.567Z,14.69
2023-05-25T21:23:07.117Z,14.64
2023-05-25T21:25:34.949Z,14.61
2023-05-25T21:28:02.933Z,14.60
2023-05-25T21:30:30.786Z,14.59
2023-05-25T21:32:58.738Z,14.54
2023-05-25T21:35:26.738Z,14.46
2023-05-25T21:37:54.604Z,14.41
2023-05-25T21:40:22.557Z,14.35
2023-05-25T21:42:53.549Z,14.34
2023-05-25T21:45:21.517Z,14.33
2023-05-25T21:47:49.457Z,14.32
2023-05-25T21:50:17.524Z,14.31
2023-05-25T21:52:46.100Z,14.30
2023-05-25T21:55:14.231Z,14.29
2023-05-25T21:57:42.987Z,14.26
2023-05-25T22:00:12.758Z,14.22
2023-05-25T22:02:41.175Z,14.14
2023-05-25T22:05:10.048Z,14.10
2023-05-25T22:07:37.972Z,14.08
2023-05-25T22:10:06.845Z,14.07
2023-05-25T22:12:34.792Z,14.07
2023-05-25T22:15:02.669Z,14.06
2023-05-25T22:17:30.522Z,14.05
2023-05-25T22:20:07.352Z,14.03
2023-05-25T22:22:37.508Z,14.02
2023-05-25T22:25:06.220Z,13.99
2023-05-25T22:27:34.360Z,13.94
2023-05-25T22:30:02.848Z,13.89
2023-05-25T22:32:30.797Z,13.89
2023-05-25T22:34:58.735Z,13.92
2023-05-25T22:37:26.633Z,13.93
2023-05-25T22:39:54.694Z,13.89
2023-05-25T22:42:22.678Z,13.90
2023-05-25T22:44:51.613Z,13.83
2023-05-25T22:47:19.711Z,13.74
2023-05-25T22:49:47.746Z,13.66
2023-05-25T22:52:15.871Z,13.57
2023-05-25T22:54:43.758Z,13.51
2023-05-25T22:57:12.044Z,13.48
2023-05-25T22:59:40.008Z,13.44
2023-05-25T23:02:08.258Z,13.41
2023-05-25T23:04:36.703Z,13.37
2023-05-25T23:07:05.071Z,13.33
2023-05-25T23:09:32.872Z,13.30
2023-05-25T23:12:00.912Z,13.29
2023-05-25T23:14:30.496Z,13.29
2023-05-25T23:16:58.472Z,13.29
2023-05-25T23:19:26.328Z,13.25
2023-05-25T23:21:54.612Z,13.20
2023-05-25T23:24:22.574Z,13.18
2023-05-25T23:26:50.737Z,13.17
2023-05-25T23:29:18.679Z,13.19
2023-05-25T23:31:47.699Z,13.21
2023-05-25T23:34:16.093Z,13.19
2023-05-25T23:36:46.594Z,13.19
2023-05-25T23:39:15.301Z,13.15
2023-05-25T23:41:43.158Z,13.12
2023-05-25T23:44:11.637Z,13.08
2023-05-25T23:46:39.693Z,13.07
2023-05-25T23:49:07.613Z,13.09
2023-05-25T23:51:36.381Z,13.10
2023-05-25T23:54:04.439Z,13.12
2023-05-25T23:56:32.704Z,13.16
2023-05-25T23:59:01.133Z,13.17
